This is the latest recevied weather packets stored in our database for station/object TA3MHA. If no packets are shown the sender has not sent any weather packets the latest 10 day(s).
| Time | Temp. | Humidity | Pressure | Rain* | Wind** | Luminosity | Snow |
|---|---|---|---|---|---|---|---|
| 1777064101 | 8.33° C | 63% | - | 0 mm | - | 0 W/m² | - |
| 1777063801 | 8.33° C | 63% | - | 0 mm | - | 0 W/m² | - |
| 1777063501 | 8.33° C | 62% | - | 0 mm | - | 0 W/m² | - |
| 1777063201 | 8.89° C | 62% | - | 0 mm | - | 0 W/m² | - |
| 1777062901 | 8.89° C | 61% | - | 0 mm | - | 0 W/m² | - |
| 1777062601 | 8.33° C | 63% | - | 0 mm | - | 0 W/m² | - |
| 1777062301 | 8.33° C | 64% | - | 0 mm | - | 0 W/m² | - |
| 1777062001 | 9.44° C | 62% | - | 0 mm | - | 0 W/m² | - |
| 1777061700 | 9.44° C | 60% | - | 0 mm | - | 0 W/m² | - |
| 1777061403 | 9.44° C | 62% | - | 0 mm | - | 0 W/m² | - |
| 1777061101 | 8.33° C | 66% | - | 0 mm | - | 0 W/m² | - |
| 1777060801 | 8.89° C | 67% | - | 0 mm | - | 0 W/m² | - |
| 1777060501 | 8.89° C | 65% | - | 0 mm | - | 0 W/m² | - |
| 1777060201 | 9.44° C | 65% | - | 0 mm | - | 0 W/m² | - |
| 1777059901 | 9.44° C | 65% | - | 0 mm | - | 0 W/m² | - |
| 1777059601 | 9.44° C | 66% | - | 0 mm | - | 0 W/m² | - |
| 1777059301 | 9.44° C | 66% | - | 0 mm | - | 0 W/m² | - |
| 1777059001 | 9.44° C | 65% | - | 0 mm | - | 0 W/m² | - |
| 1777058701 | 10° C | 65% | - | 0 mm | - | 0 W/m² | - |
| 1777058401 | 10° C | 65% | - | 0 mm | - | 0 W/m² | - |
| 1777058101 | 10° C | 64% | - | 0 mm | - | 0 W/m² | - |
| 1777057801 | 10.56° C | 64% | - | 0 mm | - | 0 W/m² | - |
| 1777057501 | 10° C | 65% | - | 0 mm | - | 0 W/m² | - |
| 1777057201 | 10.56° C | 64% | - | 0 mm | - | 0 W/m² | - |
| 1777056901 | 10.56° C | 63% | - | 0 mm | - | 0 W/m² | - |
* Rain latest hour (hover to see other rain measurements)
** Current wind speed in m/s (hover to see current wind gust speed)